Current Weather

Norman Y Mineta San Jose Intl

San Jose, California (KSJC)

Report from: Saturday, July 13, 2024 6:53 PM PDT
Current time: Saturday, July 13, 2024 7:16 PM PDT

Nearby weather – Weather history – Daily summaries
Weather forecast

Temperature23.3°C (73.9°F)
Dew point14.4°C (57.9°F)
Winds 11 kts (5.7 m/s, 12.7 mph) Northwest (320°)
Visibility9 mi. (14.5 km)
Clouds Few clouds 6,500 ft. (1,981 m)
Scattered clouds 8,500 ft. (2,591 m)
Ceiling: Broken clouds 13,000 ft. (3,962 m)
Altimeter29.91 in.Hg (1013 mB)
Relative humidity57 %
Density altitude1,211 ft. (369 m)
Sea-level pressure101.3 kPa (1013 mB, 29.91 in.Hg)
Remarks Automated weather observing station with precipitation discriminator
Flight conditions Visual Meteorological Conditions
Raw dataKSJC 140153Z 32011KT 9SM FEW065 SCT085 BKN130 23/14 A2991 RMK AO2 SLP127 T02330144
An error has occurred. This application may no longer respond until reloaded. Reload 🗙